Time;durP1;ratioP1;P1;durP2;ratioP2;P2;SDS_P1;SDS_P2;PMS_P1;PMS_P2;Temp;Humidity;BMP_temperature;BMP_pressure;BME280_temperature;BME280_humidity;BME280_pressure;Samples;Min_cycle;Max_cycle;Signal;HPM_P1;HPM_P2
2022/02/14 00:00:08;;;;;;;4.20;1.80;;;;;;;-0.13;42.62;99944.78;5070566;28;20039;-56
2022/02/14 00:02:33;;;;;;;4.18;1.80;;;;;;;-0.23;42.84;99944.25;5070671;28;20443;-60
2022/02/14 00:05:02;;;;;;;3.72;2.17;;;;;;;-0.26;42.89;99949.59;5053523;28;20123;-59
2022/02/14 00:07:29;;;;;;;3.47;1.70;;;;;;;-0.32;42.96;99937.53;5070951;28;20094;-55
2022/02/14 00:09:55;;;;;;;5.80;1.98;;;;;;;-0.34;42.84;99935.84;5070720;28;20105;-58
2022/02/14 00:12:20;;;;;;;5.20;1.90;;;;;;;-0.35;43.17;99935.00;5070386;28;20427;-56
2022/02/14 00:14:46;;;;;;;4.05;1.90;;;;;;;-0.36;43.08;99927.16;5070977;28;20440;-57
2022/02/14 00:17:11;;;;;;;5.40;1.98;;;;;;;-0.40;43.19;99920.28;5070719;28;20040;-57
2022/02/14 00:19:37;;;;;;;5.30;1.90;;;;;;;-0.42;43.05;99924.72;5052310;28;20408;-56
2022/02/14 00:22:03;;;;;;;5.63;1.85;;;;;;;-0.46;43.40;99929.22;5070875;28;20036;-55
2022/02/14 00:24:28;;;;;;;4.75;1.77;;;;;;;-0.53;43.12;99904.88;5070891;28;20028;-57
2022/02/14 00:26:54;;;;;;;4.30;2.22;;;;;;;-0.49;43.43;99930.19;5069765;28;20496;-52
2022/02/14 00:29:21;;;;;;;6.45;1.98;;;;;;;-0.52;43.44;99927.66;5070314;28;20039;-55
2022/02/14 00:31:47;;;;;;;6.60;1.90;;;;;;;-0.54;43.36;99933.91;5070720;28;20115;-55
2022/02/14 00:34:13;;;;;;;4.38;2.08;;;;;;;-0.53;43.65;99932.97;5071315;28;20481;-56
2022/02/14 00:36:39;;;;;;;5.43;1.90;;;;;;;-0.55;43.64;99933.03;5070564;28;20099;-55
2022/02/14 00:39:05;;;;;;;4.63;2.10;;;;;;;-0.58;43.45;99938.38;5072171;28;20119;-57
2022/02/14 00:41:31;;;;;;;3.38;1.52;;;;;;;-0.59;43.70;99926.16;5074533;28;20056;-55
2022/02/14 00:43:57;;;;;;;5.60;1.83;;;;;;;-0.60;43.55;99927.06;5056910;28;20064;-57
2022/02/14 00:46:22;;;;;;;4.88;1.70;;;;;;;-0.61;43.93;99928.81;5073732;28;20038;-58
2022/02/14 00:48:48;;;;;;;5.18;2.13;;;;;;;-0.67;43.52;99909.78;5073672;28;20044;-59
2022/02/14 00:51:14;;;;;;;5.32;2.30;;;;;;;-0.75;43.52;99900.34;5056698;28;20119;-56
2022/02/14 00:53:39;;;;;;;4.82;1.92;;;;;;;-0.69;43.53;99890.56;5056638;28;20062;-58
2022/02/14 00:56:05;;;;;;;4.15;1.88;;;;;;;-0.89;43.74;99857.88;5074279;28;20042;-59
2022/02/14 00:58:30;;;;;;;4.68;2.10;;;;;;;-0.64;44.15;99899.16;5073207;28;20021;-59
2022/02/14 01:00:56;;;;;;;5.28;2.25;;;;;;;-0.65;43.77;99889.53;5074061;28;20055;-56
2022/02/14 01:03:21;;;;;;;4.30;1.98;;;;;;;-0.75;43.61;99874.06;5056666;28;20397;-54
2022/02/14 01:05:47;;;;;;;4.22;1.90;;;;;;;-0.70;43.80;99892.31;5073963;28;20024;-53
2022/02/14 01:08:13;;;;;;;5.65;1.90;;;;;;;-0.70;43.58;99886.22;5073542;28;20028;-57
2022/02/14 01:10:38;;;;;;;6.72;2.15;;;;;;;-0.67;43.53;99891.38;5073586;28;20470;-59
2022/02/14 01:13:04;;;;;;;5.32;1.95;;;;;;;-0.72;43.88;99891.50;5074054;28;20033;-57
2022/02/14 01:15:30;;;;;;;5.00;1.98;;;;;;;-0.66;43.58;99886.03;5073143;28;20448;-55
2022/02/14 01:17:56;;;;;;;5.50;2.22;;;;;;;-0.90;43.72;99845.66;5072852;28;20063;-56
2022/02/14 01:20:21;;;;;;;4.60;1.83;;;;;;;-0.68;43.98;99882.59;5073268;28;20047;-58
2022/02/14 01:22:47;;;;;;;5.80;2.08;;;;;;;-0.60;43.91;99892.88;5055284;28;20028;-58
2022/02/14 01:25:13;;;;;;;5.20;2.00;;;;;;;-0.66;44.07;99879.94;5073461;28;20028;-55
2022/02/14 01:27:39;;;;;;;7.00;2.38;;;;;;;-0.60;44.11;99887.59;5073364;28;20032;-59
2022/02/14 01:30:06;;;;;;;4.50;1.88;;;;;;;-1.07;44.12;99804.16;5072727;28;20040;-58
2022/02/14 01:32:32;;;;;;;4.03;1.73;;;;;;;-0.86;44.06;99847.28;5073201;28;20032;-56
2022/02/14 01:34:57;;;;;;;4.88;2.10;;;;;;;-0.66;43.81;99861.53;5073118;28;20046;-55
2022/02/14 01:37:23;;;;;;;8.98;1.88;;;;;;;-0.71;44.04;99866.94;5073421;28;20040;-58
2022/02/14 01:39:48;;;;;;;7.03;2.10;;;;;;;-0.66;43.99;99858.91;5072717;28;20048;-55
2022/02/14 01:42:15;;;;;;;8.40;1.90;;;;;;;-0.66;44.27;99861.53;5073214;28;20488;-53
2022/02/14 01:44:47;;;;;;;4.57;2.22;;;;;;;-0.64;44.27;99876.31;5073393;28;20036;-57
2022/02/14 01:47:16;;;;;;;6.15;2.10;;;;;;;-0.68;43.90;99868.59;5055056;28;20119;-53
2022/02/14 01:49:43;;;;;;;6.03;2.10;;;;;;;-0.85;44.06;99843.72;5050482;28;20029;-50
2022/02/14 01:52:10;;;;;;;3.42;1.70;;;;;;;-0.75;44.09;99858.28;5052832;28;20291;-53
2022/02/14 01:54:38;;;;;;;5.60;1.80;;;;;;;-0.71;44.37;99842.44;5052975;28;20430;-53
2022/02/14 01:57:05;;;;;;;5.18;2.00;;;;;;;-0.73;44.49;99855.59;5052468;28;20063;-54
2022/02/14 01:59:33;;;;;;;3.42;1.38;;;;;;;-0.77;44.37;99854.00;5052933;28;20033;-54
2022/02/14 02:01:59;;;;;;;6.40;2.25;;;;;;;-1.06;44.37;99800.63;5072146;28;20442;-55
2022/02/14 02:04:25;;;;;;;2.67;1.60;;;;;;;-0.83;44.48;99847.16;5054365;28;20465;-55
2022/02/14 02:06:50;;;;;;;5.95;1.98;;;;;;;-0.86;44.36;99834.13;5072511;28;20052;-56
2022/02/14 02:09:16;;;;;;;7.28;1.70;;;;;;;-0.85;44.75;99837.59;5055368;28;20021;-57
2022/02/14 02:14:25;;;;;;;4.53;2.08;;;;;;;-0.94;45.38;99823.03;5071884;28;20028;-57
2022/02/14 02:16:51;;;;;;;3.30;1.65;;;;;;;-0.93;44.94;99832.63;5072446;28;20052;-58
2022/02/14 02:19:17;;;;;;;5.55;2.00;;;;;;;-0.90;45.05;99840.41;5073363;28;20362;-58
2022/02/14 02:21:47;;;;;;;8.55;1.95;;;;;;;-0.94;45.56;99837.00;5072281;28;20059;-59
2022/02/14 02:24:17;;;;;;;4.53;1.63;;;;;;;-0.88;45.11;99831.53;5071901;28;20039;-59
2022/02/14 02:27:04;;;;;;;3.20;1.52;;;;;;;-0.84;45.51;99837.56;5072498;28;20107;-58
2022/02/14 02:29:35;;;;;;;5.03;1.95;;;;;;;-0.87;45.48;99837.66;5072582;28;20036;-58
2022/02/14 02:32:02;;;;;;;4.57;2.15;;;;;;;-0.90;45.86;99835.16;5071330;28;20121;-57
2022/02/14 02:34:28;;;;;;;3.38;1.98;;;;;;;-0.87;45.50;99832.41;5071836;28;20032;-54
2022/02/14 02:36:58;;;;;;;3.58;1.73;;;;;;;-0.92;45.60;99826.44;5072496;28;20033;-57
2022/02/14 02:39:24;;;;;;;4.15;1.83;;;;;;;-0.91;45.95;99836.91;5072284;28;20101;-55
2022/02/14 02:41:50;;;;;;;3.80;2.10;;;;;;;-0.87;45.82;99835.03;5071955;28;20024;-57
2022/02/14 02:44:17;;;;;;;3.92;1.75;;;;;;;-0.85;45.56;99835.84;5071686;28;20473;-55
2022/02/14 02:46:43;;;;;;;3.38;1.80;;;;;;;-0.88;46.17;99830.69;5072144;28;20052;-53
2022/02/14 02:49:15;;;;;;;4.65;1.77;;;;;;;-0.85;45.96;99820.06;5072499;28;20051;-58
2022/02/14 02:51:43;;;;;;;3.58;1.70;;;;;;;-0.84;45.82;99837.56;5071736;28;20024;-57
2022/02/14 02:54:09;;;;;;;5.60;1.85;;;;;;;-0.84;46.11;99829.69;5071127;28;20024;-53
2022/02/14 02:56:37;;;;;;;5.00;1.90;;;;;;;-0.84;46.00;99834.06;5037210;28;20032;-55
2022/02/14 02:59:04;;;;;;;5.65;1.75;;;;;;;-0.87;46.65;99821.91;5072336;28;20032;-56
2022/02/14 03:01:30;;;;;;;5.07;1.63;;;;;;;-0.86;46.31;99815.72;5070920;28;20037;-54
2022/02/14 03:03:55;;;;;;;4.82;1.77;;;;;;;-0.83;46.47;99820.03;5070727;28;20039;-57
2022/02/14 03:06:22;;;;;;;4.07;2.00;;;;;;;-0.85;46.54;99804.31;5071816;28;20037;-57
2022/02/14 03:08:49;;;;;;;5.18;1.92;;;;;;;-0.88;46.18;99820.19;5053608;28;20074;-57
2022/02/14 03:11:16;;;;;;;4.82;1.80;;;;;;;-0.88;47.00;99810.50;5052996;28;20440;-56
2022/02/14 03:13:42;;;;;;;3.80;1.77;;;;;;;-0.96;46.73;99780.16;5070429;28;20411;-58
2022/02/14 03:16:07;;;;;;;4.97;2.10;;;;;;;-1.18;47.22;99751.97;5070745;28;20043;-55
2022/02/14 03:18:33;;;;;;;4.15;2.00;;;;;;;-1.02;46.88;99776.81;5071037;28;20416;-56
2022/02/14 03:20:59;;;;;;;2.92;1.80;;;;;;;-0.98;46.60;99779.31;5052822;28;20120;-56
2022/02/14 03:23:24;;;;;;;4.65;1.83;;;;;;;-0.96;46.94;99774.91;5071010;28;20111;-58
2022/02/14 03:25:50;;;;;;;4.20;2.00;;;;;;;-0.99;47.35;99774.97;5071456;28;20032;-58
2022/02/14 03:28:15;;;;;;;3.60;1.77;;;;;;;-1.06;47.29;99764.69;5070953;28;20028;-57
2022/02/14 03:30:41;;;;;;;4.28;2.10;;;;;;;-1.00;47.49;99766.25;5071020;28;20032;-51
2022/02/14 03:33:06;;;;;;;4.75;1.95;;;;;;;-1.03;47.40;99772.47;5053405;28;20031;-57
2022/02/14 03:35:32;;;;;;;4.15;1.90;;;;;;;-1.06;47.56;99769.94;5070382;28;20107;-55
2022/02/14 03:37:59;;;;;;;5.05;1.73;;;;;;;-1.10;47.41;99768.34;5070745;28;20028;-56
2022/02/14 03:40:25;;;;;;;3.75;2.10;;;;;;;-1.10;47.71;99780.59;5071163;28;20028;-57
2022/02/14 03:42:51;;;;;;;4.45;1.90;;;;;;;-1.06;47.78;99780.44;5071026;28;20101;-57
2022/02/14 03:45:17;;;;;;;3.35;1.75;;;;;;;-1.22;47.98;99759.09;5070537;28;20016;-58
2022/02/14 03:47:42;;;;;;;3.80;1.73;;;;;;;-1.05;47.78;99782.16;5070988;28;20032;-53
2022/02/14 03:50:08;;;;;;;3.47;1.52;;;;;;;-1.05;47.97;99782.16;5052898;28;20029;-59
2022/02/14 03:52:34;;;;;;;5.38;2.20;;;;;;;-1.03;47.96;99777.72;5070294;28;20452;-57
2022/02/14 03:54:59;;;;;;;6.88;2.13;;;;;;;-1.15;47.85;99759.75;5070974;28;20146;-56
2022/02/14 03:57:25;;;;;;;4.93;2.38;;;;;;;-1.02;48.23;99771.56;5067166;28;20020;-56
2022/02/14 03:59:50;;;;;;;3.05;1.88;;;;;;;-1.02;48.26;99776.81;5068796;28;20029;-57
2022/02/14 04:02:16;;;;;;;5.22;2.10;;;;;;;-1.00;48.26;99779.41;5068653;28;20090;-56
2022/02/14 04:04:41;;;;;;;4.53;2.13;;;;;;;-1.02;48.37;99766.28;5069596;28;20575;-59
2022/02/14 04:07:07;;;;;;;5.90;2.42;;;;;;;-0.96;48.17;99778.38;5068855;28;20032;-58
2022/02/14 04:09:32;;;;;;;4.75;2.10;;;;;;;-0.92;48.37;99776.50;5068588;28;20393;-58
2022/02/14 04:11:58;;;;;;;7.60;2.17;;;;;;;-0.93;47.78;99769.53;5069894;28;20040;-58
2022/02/14 04:14:23;;;;;;;6.68;2.10;;;;;;;-0.91;48.33;99779.06;5058539;28;20031;-58
2022/02/14 04:16:49;;;;;;;5.30;1.90;;;;;;;-0.87;48.33;99779.84;5058977;28;20048;-59
2022/02/14 04:19:14;;;;;;;4.28;2.00;;;;;;;-0.86;47.96;99781.56;5076949;28;20374;-57
2022/02/14 04:21:40;;;;;;;5.30;2.20;;;;;;;-0.85;48.18;99785.03;5059446;28;20028;-57
2022/02/14 04:24:05;;;;;;;4.53;2.33;;;;;;;-0.87;48.53;99780.69;5077402;28;20111;-57
2022/02/14 04:26:31;;;;;;;5.95;2.50;;;;;;;-1.06;47.91;99742.81;5077109;28;20032;-58
2022/02/14 04:28:56;;;;;;;4.57;2.38;;;;;;;-0.87;47.92;99771.94;5076964;28;20155;-55
2022/02/14 04:31:22;;;;;;;6.80;2.42;;;;;;;-0.98;48.15;99764.44;5059370;28;20120;-55
2022/02/14 04:33:47;;;;;;;5.78;2.30;;;;;;;-1.13;48.61;99744.78;5077479;28;20390;-55
2022/02/14 04:36:13;;;;;;;3.22;1.90;;;;;;;-0.95;48.42;99781.88;5059421;28;20036;-55
2022/02/14 04:38:38;;;;;;;4.47;2.20;;;;;;;-0.90;48.63;99783.41;5076434;28;20460;-56
2022/02/14 04:41:04;;;;;;;3.95;2.17;;;;;;;-0.85;48.35;99780.63;5076808;28;20040;-53
2022/02/14 04:43:29;;;;;;;6.20;2.33;;;;;;;-0.87;48.91;99779.84;5077489;28;20107;-57
2022/02/14 04:45:55;;;;;;;7.50;2.50;;;;;;;-0.89;48.59;99774.63;5077379;28;20028;-56
2022/02/14 04:48:20;;;;;;;3.00;1.92;;;;;;;-0.85;48.32;99775.38;5058507;28;20020;-58
2022/02/14 04:50:46;;;;;;;8.65;2.63;;;;;;;-0.86;48.47;99776.28;5058781;28;20029;-55
2022/02/14 04:53:12;;;;;;;5.22;2.17;;;;;;;-0.87;48.79;99769.31;5077444;28;20036;-52
2022/02/14 04:55:37;;;;;;;4.25;2.17;;;;;;;-0.85;48.64;99764.88;5058935;28;20028;-53
2022/02/14 04:58:03;;;;;;;5.45;2.20;;;;;;;-0.91;49.03;99751.94;5076929;28;20032;-54
2022/02/14 05:00:30;;;;;;;7.30;2.60;;;;;;;-0.88;48.69;99752.69;5058148;28;20028;-59
2022/02/14 05:02:55;;;;;;;4.45;2.28;;;;;;;-0.84;48.74;99752.56;5077506;28;20046;-56
2022/02/14 05:05:21;;;;;;;5.30;2.65;;;;;;;-0.82;48.93;99758.66;5076561;28;20434;-56
2022/02/14 05:07:50;;;;;;;6.00;2.13;;;;;;;-0.81;49.01;99760.38;5076090;28;20081;-56
2022/02/14 05:10:15;;;;;;;4.72;2.30;;;;;;;-0.83;49.31;99760.41;5076259;28;20074;-57
2022/02/14 05:12:41;;;;;;;4.63;2.20;;;;;;;-0.87;49.13;99764.06;5076346;28;20059;-59
2022/02/14 05:15:09;;;;;;;8.88;2.50;;;;;;;-0.81;49.10;99771.72;5058537;28;20052;-55
2022/02/14 05:17:34;;;;;;;4.78;2.45;;;;;;;-0.77;49.17;99770.72;5076508;28;20070;-56
2022/02/14 05:20:00;;;;;;;4.72;2.30;;;;;;;-0.73;48.79;99774.94;5076547;28;20474;-55
2022/02/14 05:22:25;;;;;;;5.50;2.50;;;;;;;-0.73;48.66;99772.31;5059132;28;20044;-60
2022/02/14 05:24:51;;;;;;;6.28;2.40;;;;;;;-0.67;48.93;99767.78;5073510;28;20064;-55
2022/02/14 05:27:17;;;;;;;5.22;2.38;;;;;;;-0.63;48.52;99762.34;5073431;28;20020;-55
2022/02/14 05:29:43;;;;;;;6.47;2.60;;;;;;;-0.54;48.90;99781.34;5073697;28;20024;-56
2022/02/14 05:32:08;;;;;;;6.55;2.10;;;;;;;-0.54;48.62;99774.31;5072934;28;20469;-56
2022/02/14 05:34:34;;;;;;;4.13;2.28;;;;;;;-0.51;48.65;99781.25;5073453;28;20050;-58
2022/02/14 05:36:59;;;;;;;6.35;2.70;;;;;;;-0.44;48.98;99794.13;5073773;28;20050;-58
2022/02/14 05:39:25;;;;;;;4.93;2.22;;;;;;;-0.40;48.41;99791.38;5073219;28;20052;-57
2022/02/14 05:41:51;;;;;;;6.05;2.30;;;;;;;-0.37;48.62;99776.31;5072896;28;20056;-57
2022/02/14 05:44:16;;;;;;;5.03;2.38;;;;;;;-0.27;48.64;99768.13;5073288;28;20074;-57
2022/02/14 05:46:42;;;;;;;5.78;2.40;;;;;;;-0.24;48.47;99778.53;5054791;28;20082;-55
2022/02/14 05:49:07;;;;;;;6.72;2.40;;;;;;;-0.19;48.55;99768.69;5072578;28;20025;-57
2022/02/14 05:51:33;;;;;;;7.22;2.60;;;;;;;-0.11;48.29;99768.41;5072919;28;20037;-55
2022/02/14 05:53:58;;;;;;;5.68;2.33;;;;;;;-0.03;48.34;99768.97;5073326;28;20039;-57
2022/02/14 05:56:24;;;;;;;6.70;2.78;;;;;;;0.08;47.53;99766.78;5072685;28;20028;-55
2022/02/14 05:58:49;;;;;;;4.78;2.53;;;;;;;0.20;47.47;99775.13;5072768;28;20031;-57
2022/02/14 06:01:16;;;;;;;3.92;2.35;;;;;;;0.27;47.22;99768.72;5073092;28;20385;-54
2022/02/14 06:03:41;;;;;;;6.10;2.33;;;;;;;0.35;47.24;99765.75;5072020;28;20032;-53
2022/02/14 06:06:07;;;;;;;8.38;2.70;;;;;;;0.51;46.87;99782.69;5072656;28;20028;-52
2022/02/14 06:08:33;;;;;;;7.38;2.53;;;;;;;0.52;46.77;99770.38;5073162;28;20028;-53
2022/02/14 06:10:58;;;;;;;3.95;2.22;;;;;;;0.54;46.52;99781.72;5073153;28;20039;-51
2022/02/14 06:13:24;;;;;;;6.65;3.03;;;;;;;0.55;47.01;99781.63;5072019;28;20032;-51
2022/02/14 06:15:50;;;;;;;5.95;2.38;;;;;;;0.61;46.79;99769.16;5072250;28;20094;-52
2022/02/14 06:18:15;;;;;;;6.13;2.80;;;;;;;0.77;46.53;99764.13;5072930;28;20087;-53
2022/02/14 06:20:41;;;;;;;4.82;2.63;;;;;;;1.07;46.16;99764.59;5072712;28;20045;-54
2022/02/14 06:23:06;;;;;;;6.18;2.80;;;;;;;1.32;45.27;99768.81;5053024;28;20384;-54
2022/02/14 06:25:32;;;;;;;5.30;2.47;;;;;;;1.54;44.74;99767.88;5072031;28;20098;-54
2022/02/14 06:27:58;;;;;;;5.03;2.85;;;;;;;1.72;44.36;99772.34;5072415;28;20038;-58
2022/02/14 06:30:24;;;;;;;7.03;2.42;;;;;;;1.92;44.29;99761.81;5072436;28;20307;-57
2022/02/14 06:32:50;;;;;;;5.70;2.55;;;;;;;2.31;42.91;99766.16;5072205;28;20037;-59
2022/02/14 06:35:16;;;;;;;6.55;2.58;;;;;;;2.68;42.30;99766.19;5071107;28;20056;-53
2022/02/14 06:37:43;;;;;;;7.05;2.92;;;;;;;3.21;41.71;99775.03;5071808;28;20401;-57
2022/02/14 06:40:10;;;;;;;5.00;2.78;;;;;;;3.91;40.11;99770.56;5072351;28;20115;-58
2022/02/14 06:42:36;;;;;;;4.65;2.70;;;;;;;4.62;38.56;99774.63;5071997;28;20090;-59
2022/02/14 06:45:02;;;;;;;6.60;2.67;;;;;;;5.30;37.68;99736.19;5053320;28;20028;-57
2022/02/14 06:47:29;;;;;;;4.53;2.65;;;;;;;6.60;35.06;99763.63;5072226;28;20032;-56
2022/02/14 06:49:54;;;;;;;7.68;3.47;;;;;;;7.82;33.00;99753.69;5072598;28;20052;-53
2022/02/14 06:52:20;;;;;;;5.63;2.58;;;;;;;8.82;31.56;99755.50;5071529;28;20029;-58
2022/02/14 06:54:45;;;;;;;7.32;2.80;;;;;;;9.56;30.10;99760.56;5053222;28;20024;-60
2022/02/14 06:57:11;;;;;;;7.25;3.15;;;;;;;10.39;29.02;99755.00;5071647;28;20462;-61
2022/02/14 06:59:36;;;;;;;6.28;2.95;;;;;;;10.93;28.04;99763.13;5071583;28;20095;-62
2022/02/14 07:02:02;;;;;;;7.82;2.83;;;;;;;10.93;27.62;99762.28;5052916;28;20393;-61
2022/02/14 07:04:28;;;;;;;9.88;3.25;;;;;;;11.20;27.69;99753.75;5050203;28;20426;-61
2022/02/14 07:06:53;;;;;;;6.47;2.90;;;;;;;12.26;25.97;99742.03;5070844;28;20039;-62
2022/02/14 07:09:19;;;;;;;10.55;3.40;;;;;;;13.47;24.62;99756.13;5053815;28;20025;-61
2022/02/14 07:11:45;;;;;;;6.75;3.08;;;;;;;14.70;22.99;99747.06;5071546;28;20339;-54
2022/02/14 07:14:12;;;;;;;7.30;2.88;;;;;;;15.71;22.09;99749.63;5070974;28;20638;-61
2022/02/14 07:16:37;;;;;;;8.27;3.28;;;;;;;16.36;20.77;99749.13;5071403;28;20048;-61
2022/02/14 07:19:03;;;;;;;6.90;3.58;;;;;;;16.38;20.69;99750.81;5071209;28;20378;-63
2022/02/14 07:21:29;;;;;;;7.63;3.30;;;;;;;15.83;21.29;99750.22;5071226;28;20033;-62
2022/02/14 07:23:54;;;;;;;5.38;3.58;;;;;;;16.24;20.91;99745.00;5071608;28;20025;-64
2022/02/14 07:26:20;;;;;;;6.53;3.80;;;;;;;16.35;20.68;99743.88;5049548;28;20029;-64
2022/02/14 07:28:46;;;;;;;7.38;3.63;;;;;;;16.55;20.18;99743.59;5051111;28;20035;-60
2022/02/14 07:31:12;;;;;;;6.65;3.60;;;;;;;17.07;19.65;99743.38;5050133;28;20024;-63
2022/02/14 07:33:37;;;;;;;6.07;3.40;;;;;;;17.43;19.28;99736.75;5050058;28;20060;-64
2022/02/14 07:36:03;;;;;;;5.38;3.67;;;;;;;17.55;18.93;99739.13;5033025;28;20025;-61
2022/02/14 07:38:29;;;;;;;7.75;4.20;;;;;;;17.86;18.72;99725.69;5033101;28;20032;-63
2022/02/14 07:40:54;;;;;;;6.30;3.55;;;;;;;18.10;18.22;99723.94;5051189;28;20078;-63
2022/02/14 07:43:21;;;;;;;9.25;4.18;;;;;;;18.22;18.40;99733.38;5065205;28;20032;-60
2022/02/14 07:45:47;;;;;;;5.53;3.78;;;;;;;18.44;17.95;99698.38;5070917;28;20115;-64
2022/02/14 07:48:12;;;;;;;4.85;3.30;;;;;;;19.05;17.51;99726.63;5070642;28;20111;-64
2022/02/14 07:50:38;;;;;;;7.07;3.70;;;;;;;19.23;16.94;99739.88;5069965;28;20106;-61
2022/02/14 07:53:03;;;;;;;6.60;4.18;;;;;;;19.05;17.19;99737.47;5069050;28;20039;-61
2022/02/14 07:55:29;;;;;;;7.90;3.83;;;;;;;18.14;18.06;99741.53;5069187;28;20024;-62
2022/02/14 07:57:54;;;;;;;5.28;4.05;;;;;;;16.50;19.71;99736.84;5068883;28;20035;-62
2022/02/14 08:00:22;;;;;;;5.80;3.83;;;;;;;14.80;21.24;99746.22;5050692;28;20468;-62
2022/02/14 08:02:48;;;;;;;7.88;3.90;;;;;;;13.21;23.07;99756.72;5070225;28;20031;-63
2022/02/14 08:05:13;;;;;;;8.57;3.85;;;;;;;11.92;24.87;99759.25;5053115;28;20044;-63
2022/02/14 08:07:39;;;;;;;6.80;3.45;;;;;;;10.83;26.48;99751.47;5052931;28;20486;-64
2022/02/14 08:10:05;;;;;;;11.25;4.38;;;;;;;9.71;28.10;99749.66;5070940;28;20037;-63
2022/02/14 08:12:31;;;;;;;12.00;4.10;;;;;;;8.66;29.12;99719.25;5071346;28;20032;-63
2022/02/14 08:14:57;;;;;;;12.38;4.30;;;;;;;8.00;30.58;99735.56;5071201;28;20124;-62
2022/02/14 08:17:23;;;;;;;7.93;3.75;;;;;;;7.53;31.45;99768.13;5070749;28;20218;-61
2022/02/14 08:19:48;;;;;;;7.15;4.18;;;;;;;7.12;32.80;99761.13;5070664;28;20524;-63
2022/02/14 08:22:13;;;;;;;7.97;4.35;;;;;;;6.78;33.19;99753.59;5070733;28;20040;-62
2022/02/14 08:24:39;;;;;;;6.93;3.78;;;;;;;6.53;33.93;99749.03;5071101;28;20025;-62
2022/02/14 08:27:05;;;;;;;8.32;4.55;;;;;;;6.34;33.79;99746.69;5070939;28;20028;-61
2022/02/14 08:29:30;;;;;;;7.63;4.03;;;;;;;6.16;34.49;99749.59;5070148;28;20033;-61
2022/02/14 08:31:56;;;;;;;6.63;4.38;;;;;;;5.97;34.46;99752.50;5070878;28;20040;-60
2022/02/14 08:34:21;;;;;;;9.82;4.55;;;;;;;5.68;35.54;99736.59;5071318;28;20125;-61
2022/02/14 08:36:48;;;;;;;8.50;4.13;;;;;;;5.58;35.93;99742.47;5070857;28;20028;-61
2022/02/14 08:39:14;;;;;;;8.05;4.40;;;;;;;5.39;35.99;99740.06;5070233;28;20546;-61
2022/02/14 08:41:41;;;;;;;7.65;4.10;;;;;;;5.11;36.58;99739.06;5070707;28;20033;-62
2022/02/14 08:44:07;;;;;;;7.50;4.10;;;;;;;4.99;36.99;99748.59;5071301;28;20029;-62
2022/02/14 08:46:33;;;;;;;9.30;4.55;;;;;;;4.84;37.43;99747.69;5070775;28;20037;-61
2022/02/14 08:48:59;;;;;;;16.30;4.90;;;;;;;4.67;37.83;99732.78;5070242;28;20092;-63
2022/02/14 08:51:24;;;;;;;13.82;4.70;;;;;;;4.69;38.20;99730.88;5070276;28;20040;-62
2022/02/14 08:53:50;;;;;;;8.38;4.40;;;;;;;4.84;38.03;99742.41;5070730;28;20131;-60
2022/02/14 08:56:17;;;;;;;8.98;4.82;;;;;;;5.07;37.97;99753.47;5070332;28;20103;-62
2022/02/14 08:58:43;;;;;;;9.90;4.65;;;;;;;5.14;37.40;99728.25;5070215;28;20032;-61
2022/02/14 09:01:11;;;;;;;9.20;4.65;;;;;;;5.25;37.16;99743.53;5073821;28;20032;-62
2022/02/14 09:03:39;;;;;;;10.02;4.95;;;;;;;5.13;37.63;99749.59;5073514;28;20127;-60
2022/02/14 09:06:05;;;;;;;8.77;4.88;;;;;;;4.76;38.10;99733.16;5074233;28;20090;-63
2022/02/14 09:08:31;;;;;;;10.40;4.47;;;;;;;4.74;38.41;99739.41;5055777;28;20040;-62
2022/02/14 09:10:59;;;;;;;9.15;4.70;;;;;;;4.62;39.16;99721.59;5073168;28;20116;-63
2022/02/14 09:13:25;;;;;;;10.77;4.88;;;;;;;4.74;38.67;99688.19;5073883;28;20032;-61
2022/02/14 09:15:51;;;;;;;7.72;4.90;;;;;;;5.27;38.15;99701.84;5073392;28;20032;-62
2022/02/14 09:18:16;;;;;;;7.53;4.53;;;;;;;5.87;36.93;99729.19;5073992;28;20535;-63
2022/02/14 09:20:42;;;;;;;10.73;4.80;;;;;;;6.13;36.70;99737.34;5073600;28;20409;-63
2022/02/14 09:23:07;;;;;;;8.95;4.40;;;;;;;6.27;36.27;99744.44;5073526;28;20086;-63
2022/02/14 09:25:34;;;;;;;9.80;5.13;;;;;;;6.13;36.67;99753.28;5073925;28;20086;-63
2022/02/14 09:28:01;;;;;;;8.73;5.28;;;;;;;5.75;37.21;99741.41;5074115;28;20029;-63
2022/02/14 09:30:27;;;;;;;7.75;4.80;;;;;;;5.24;38.30;99743.66;5072876;28;20036;-61
2022/02/14 09:32:52;;;;;;;7.75;4.25;;;;;;;4.82;39.08;99730.16;5073218;28;20036;-62
2022/02/14 09:35:26;;;;;;;10.60;5.20;;;;;;;4.59;39.98;99733.22;5073465;28;20403;-60
2022/02/14 09:37:59;;;;;;;9.20;5.25;;;;;;;4.39;39.90;99714.94;5055485;28;20029;-61
2022/02/14 09:40:27;;;;;;;9.50;5.20;;;;;;;4.28;40.77;99745.56;5073375;28;20036;-62
2022/02/14 09:42:55;;;;;;;9.32;4.97;;;;;;;4.22;40.99;99727.34;5073478;28;20028;-62
2022/02/14 09:45:24;;;;;;;8.07;4.97;;;;;;;4.38;40.50;99730.00;5072886;28;20115;-62
2022/02/14 09:48:06;;;;;;;9.63;5.35;;;;;;;4.67;39.88;99730.13;5073101;28;20025;-62
2022/02/14 09:50:34;;;;;;;7.90;4.90;;;;;;;4.84;39.75;99749.53;5073427;28;20461;-62
2022/02/14 09:53:02;;;;;;;10.43;5.30;;;;;;;5.03;39.35;99730.72;5072821;28;20029;-63
2022/02/14 09:55:27;;;;;;;7.10;4.97;;;;;;;5.16;39.29;99717.56;5073012;28;20111;-62
2022/02/14 09:57:53;;;;;;;12.05;5.50;;;;;;;5.13;38.61;99675.28;5073215;28;20266;-63
2022/02/14 10:00:19;;;;;;;12.48;6.20;;;;;;;5.25;38.60;99686.97;5073714;28;20476;-63
2022/02/14 10:02:45;;;;;;;11.98;5.32;;;;;;;5.62;38.66;99723.69;5073409;28;20137;-62
2022/02/14 10:05:18;;;;;;;11.68;5.63;;;;;;;5.53;39.05;99719.78;5073232;28;20454;-62
2022/02/14 10:07:48;;;;;;;9.68;5.28;;;;;;;5.24;39.52;99707.34;5073832;28;20052;-62
2022/02/14 10:10:15;;;;;;;10.05;5.50;;;;;;;4.98;39.99;99712.41;5055312;28;20032;-63
2022/02/14 10:12:51;;;;;;;9.48;5.88;;;;;;;4.70;40.56;99723.75;5072718;28;20026;-63
2022/02/14 10:15:18;;;;;;;9.82;5.60;;;;;;;4.42;40.74;99730.66;5073029;28;20086;-61
2022/02/14 10:17:47;;;;;;;10.05;6.03;;;;;;;4.21;41.68;99719.47;5073036;28;20509;-63
2022/02/14 10:20:15;;;;;;;12.25;6.10;;;;;;;3.99;42.37;99696.81;5073190;28;20040;-61
2022/02/14 10:22:58;;;;;;;10.27;5.70;;;;;;;4.02;42.23;99720.50;5073019;28;20063;-62
2022/02/14 10:25:28;;;;;;;11.10;5.82;;;;;;;3.82;42.58;99713.66;5052618;28;20446;-61
2022/02/14 10:28:11;;;;;;;12.27;6.35;;;;;;;3.79;42.77;99732.34;5052944;28;20033;-61
2022/02/14 10:30:56;;;;;;;12.18;6.30;;;;;;;3.78;42.33;99726.19;5052674;28;20033;-62
2022/02/14 10:33:22;;;;;;;10.57;6.40;;;;;;;3.71;42.93;99732.75;5035199;28;20529;-61
2022/02/14 10:35:49;;;;;;;12.05;6.18;;;;;;;3.65;43.53;99726.00;5072604;28;20142;-62
2022/02/14 10:38:15;;;;;;;10.70;6.35;;;;;;;3.55;43.67;99719.50;5072855;28;20040;-63
2022/02/14 10:40:41;;;;;;;11.73;6.60;;;;;;;3.57;43.54;99721.09;5054556;28;20051;-61
2022/02/14 10:43:09;;;;;;;12.23;7.03;;;;;;;3.61;44.00;99713.88;5054284;28;20462;-63
2022/02/14 10:45:35;;;;;;;12.25;6.90;;;;;;;3.61;44.01;99713.88;5071762;28;20032;-61
2022/02/14 10:48:04;;;;;;;11.10;6.45;;;;;;;3.61;43.61;99711.22;5072317;28;20457;-62
2022/02/14 10:50:30;;;;;;;11.52;6.78;;;;;;;3.63;44.06;99716.44;5072345;28;20064;-60
2022/02/14 10:53:01;;;;;;;12.63;6.97;;;;;;;3.48;43.65;99670.44;5072164;28;20029;-61
2022/02/14 10:55:37;;;;;;;10.35;6.35;;;;;;;3.74;43.85;99708.75;5071454;28;20119;-62
2022/02/14 10:58:03;;;;;;;15.15;6.90;;;;;;;3.58;44.41;99698.97;5072164;28;20060;-62
2022/02/14 11:00:31;;;;;;;9.38;6.40;;;;;;;3.68;43.99;99693.22;5071922;28;20063;-62
2022/02/14 11:03:01;;;;;;;13.55;7.43;;;;;;;3.71;44.41;99704.47;5071881;28;20381;-62
2022/02/14 11:05:29;;;;;;;11.60;6.70;;;;;;;3.70;44.10;99701.94;5071763;28;20036;-61
2022/02/14 11:07:58;;;;;;;11.55;6.85;;;;;;;3.67;44.45;99712.69;5037640;28;20029;-60
2022/02/14 11:10:24;;;;;;;10.50;6.43;;;;;;;3.68;44.71;99698.50;5071706;28;20028;-61
2022/02/14 11:12:54;;;;;;;11.13;6.25;;;;;;;3.80;44.21;99697.81;5071823;28;20051;-61
2022/02/14 11:15:24;;;;;;;15.43;6.70;;;;;;;3.90;44.03;99700.00;5071815;28;20461;-62
2022/02/14 11:17:54;;;;;;;14.38;7.93;;;;;;;3.91;44.13;99699.03;5051749;28;20506;-62
2022/02/14 11:20:20;;;;;;;14.20;7.35;;;;;;;3.44;44.17;99628.25;5050711;28;20494;-63
2022/02/14 11:22:50;;;;;;;12.75;7.22;;;;;;;3.94;43.83;99697.06;5051173;28;20138;-61
2022/02/14 11:25:26;;;;;;;12.63;6.93;;;;;;;3.94;43.75;99704.19;5033834;28;20031;-61
2022/02/14 11:28:23;;;;;;;13.48;7.30;;;;;;;4.00;43.37;99698.53;5069325;28;20467;-62
2022/02/14 11:30:50;;;;;;;12.18;7.10;;;;;;;3.89;44.19;99704.41;5071734;28;20032;-61
2022/02/14 11:33:22;;;;;;;13.50;6.88;;;;;;;3.89;44.72;99699.13;5071395;28;20033;-63